Time;durP1;ratioP1;P1;durP2;ratioP2;P2;SDS_P1;SDS_P2;PMS_P1;PMS_P2;Temp;Humidity;BMP_temperature;BMP_pressure;BME280_temperature;BME280_humidity;BME280_pressure;Samples;Min_cycle;Max_cycle;Signal;HPM_P1;HPM_P2
2021/05/18 00:01:38;;;;;;;11.75;4.72;;;;;;;11.51;61.74;97911.00;5014966;28;20041;-63
2021/05/18 00:04:04;;;;;;;10.40;4.40;;;;;;;11.46;61.96;97916.28;5016023;28;20147;-63
2021/05/18 00:06:29;;;;;;;22.85;9.45;;;;;;;11.41;61.79;97920.78;5010997;28;20033;-62
2021/05/18 00:11:44;;;;;;;20.92;4.13;;;;;;;11.50;61.83;97917.06;5012083;28;20041;-63
2021/05/18 00:14:20;;;;;;;8.68;3.92;;;;;;;11.57;61.58;97936.50;5013356;28;20037;-63
2021/05/18 00:16:46;;;;;;;9.13;4.10;;;;;;;11.56;62.17;97909.97;5018282;28;20022;-62
2021/05/18 00:19:13;;;;;;;7.75;3.63;;;;;;;11.63;61.92;97936.25;5015162;28;20121;-62
2021/05/18 00:21:39;;;;;;;8.70;3.83;;;;;;;11.71;62.01;97914.56;5011870;28;20030;-62
2021/05/18 00:24:05;;;;;;;7.05;3.42;;;;;;;11.70;61.92;97919.78;5011310;28;20496;-62
2021/05/18 00:26:31;;;;;;;7.18;3.50;;;;;;;11.70;61.85;97948.00;5020420;28;20088;-63
2021/05/18 00:28:57;;;;;;;8.30;3.85;;;;;;;11.79;61.43;97925.47;5011573;28;20316;-63
2021/05/18 00:31:22;;;;;;;7.72;3.60;;;;;;;11.84;62.00;97910.72;5022333;28;20033;-62
2021/05/18 00:33:47;;;;;;;10.55;4.53;;;;;;;11.84;62.12;97915.00;5014566;28;20030;-62
2021/05/18 00:36:13;;;;;;;7.45;4.00;;;;;;;11.81;62.72;97925.38;5014636;28;20040;-63
2021/05/18 00:38:40;;;;;;;8.65;4.28;;;;;;;11.68;63.16;97919.81;5014005;28;20068;-63
2021/05/18 00:41:06;;;;;;;8.40;3.78;;;;;;;11.68;62.99;97917.25;5014327;28;20145;-63
2021/05/18 00:43:32;;;;;;;13.75;6.40;;;;;;;11.69;63.07;97916.38;5013691;28;20076;-64
2021/05/18 00:45:58;;;;;;;10.73;4.43;;;;;;;11.77;62.83;97916.97;5017845;28;20068;-63
2021/05/18 00:48:23;;;;;;;13.20;5.72;;;;;;;11.83;62.93;97924.47;5030774;28;20079;-63
2021/05/18 00:50:55;;;;;;;12.90;5.32;;;;;;;11.87;62.37;97936.31;5029988;28;20017;-63
2021/05/18 00:53:22;;;;;;;12.82;5.72;;;;;;;11.83;63.01;97928.75;5033574;28;20374;-62
2021/05/18 00:55:57;;;;;;;12.77;4.70;;;;;;;11.83;62.67;97941.59;5029451;28;20068;-63
2021/05/18 00:58:35;;;;;;;14.43;6.38;;;;;;;11.81;62.92;97923.66;5031386;28;20646;-62
2021/05/18 01:01:03;;;;;;;10.35;4.68;;;;;;;11.96;62.32;97950.56;5032887;28;20030;-63
2021/05/18 01:03:30;;;;;;;11.80;4.93;;;;;;;11.98;62.39;97933.34;5033974;28;20277;-62
2021/05/18 01:08:40;;;;;;;7.53;4.00;;;;;;;11.98;62.81;97937.63;5035722;28;20278;-61
2021/05/18 01:11:06;;;;;;;10.50;4.82;;;;;;;11.91;63.12;97942.16;5031239;28;20029;-62
2021/05/18 01:13:34;;;;;;;12.23;5.65;;;;;;;11.86;64.14;97946.63;5033780;28;20053;-63
2021/05/18 01:15:59;;;;;;;8.35;3.83;;;;;;;11.78;64.23;97940.91;5029005;28;20026;-63
2021/05/18 01:18:25;;;;;;;9.43;4.55;;;;;;;11.74;64.51;97923.94;5034057;28;20039;-63
2021/05/18 01:20:59;;;;;;;10.45;4.25;;;;;;;11.79;63.94;97935.75;5030168;28;20031;-63
2021/05/18 01:23:26;;;;;;;13.30;6.10;;;;;;;11.71;64.60;97940.25;5030459;28;20107;-62
2021/05/18 01:25:53;;;;;;;8.02;3.83;;;;;;;11.77;63.22;97952.91;5025988;28;20095;-62
2021/05/18 01:28:19;;;;;;;9.63;4.55;;;;;;;11.77;63.50;97942.63;5030238;28;20022;-62
2021/05/18 01:30:45;;;;;;;10.13;5.05;;;;;;;11.79;62.98;97958.00;5031627;28;20041;-62
2021/05/18 01:33:10;;;;;;;10.43;4.68;;;;;;;11.71;63.88;97968.50;5031962;28;20025;-62
2021/05/18 01:35:37;;;;;;;8.63;4.38;;;;;;;11.74;63.63;97955.59;5027596;28;20025;-62
2021/05/18 01:38:06;;;;;;;11.70;5.60;;;;;;;11.70;64.07;97959.13;5029532;28;20041;-61
2021/05/18 01:43:14;;;;;;;10.98;4.85;;;;;;;11.56;64.92;97952.78;5032049;28;20056;-62
2021/05/18 01:45:42;;;;;;;12.10;6.53;;;;;;;11.61;64.19;97958.59;5026779;28;20429;-63
2021/05/18 01:48:15;;;;;;;11.77;4.90;;;;;;;11.60;64.57;97972.31;5031327;28;20053;-63
2021/05/18 01:50:47;;;;;;;11.23;4.68;;;;;;;11.67;63.60;97956.66;5027829;28;20018;-63
2021/05/18 01:53:15;;;;;;;10.32;5.05;;;;;;;11.69;63.86;97956.59;5030686;28;20029;-62
2021/05/18 01:56:16;;;;;;;13.80;5.55;;;;;;;11.71;63.20;97976.19;5012867;28;20706;-62
2021/05/18 01:58:42;;;;;;;9.70;4.30;;;;;;;11.83;62.90;97970.69;5032584;28;20049;-62
2021/05/18 02:01:07;;;;;;;9.85;3.65;;;;;;;11.73;63.25;97961.63;5032497;28;20055;-62
2021/05/18 02:03:33;;;;;;;9.82;4.53;;;;;;;11.82;62.71;97976.72;5029895;28;20029;-63
2021/05/18 02:05:58;;;;;;;8.13;3.78;;;;;;;11.88;62.77;97981.63;5016903;28;20032;-62
2021/05/18 02:08:24;;;;;;;9.30;4.22;;;;;;;11.90;62.31;97990.13;5027941;28;20052;-62
2021/05/18 02:10:50;;;;;;;9.95;4.18;;;;;;;11.90;62.30;97982.41;5029403;28;20398;-62
2021/05/18 02:13:15;;;;;;;16.95;6.90;;;;;;;11.83;62.87;97975.81;5031050;28;20063;-62
2021/05/18 02:15:55;;;;;;;7.93;3.85;;;;;;;11.86;63.32;97991.13;5029022;28;20100;-62
2021/05/18 02:21:25;;;;;;;7.60;3.50;;;;;;;11.88;63.73;97998.78;5027251;28;20022;-62
2021/05/18 02:26:35;;;;;;;8.88;3.50;;;;;;;11.76;63.63;98004.31;5029930;28;20044;-62
2021/05/18 02:29:00;;;;;;;10.57;3.97;;;;;;;11.77;63.47;98009.41;5029401;28;20024;-62
2021/05/18 02:31:26;;;;;;;12.27;5.25;;;;;;;11.73;64.09;98002.69;5028360;28;20377;-62
2021/05/18 02:33:52;;;;;;;9.40;4.32;;;;;;;11.74;64.27;98003.53;5028731;28;20026;-63
2021/05/18 02:36:20;;;;;;;12.38;4.90;;;;;;;11.61;64.29;98008.22;5030679;28;20044;-63
2021/05/18 02:38:46;;;;;;;11.65;4.20;;;;;;;11.66;64.26;98013.19;5029887;28;20029;-61
2021/05/18 02:41:12;;;;;;;14.98;5.28;;;;;;;11.67;64.54;98020.84;5033585;28;20039;-65
2021/05/18 02:44:25;;;;;;;9.45;4.22;;;;;;;11.70;64.33;98040.47;5028708;28;20037;-65
2021/05/18 02:51:32;;;;;;;8.90;4.38;;;;;;;11.73;63.64;98036.09;5030492;28;20041;-63
2021/05/18 02:53:57;;;;;;;8.90;4.00;;;;;;;11.75;63.53;98038.63;5028826;28;20151;-64
2021/05/18 02:56:39;;;;;;;10.43;4.45;;;;;;;11.72;63.25;98031.84;5027171;28;20033;-63
2021/05/18 03:01:30;;;;;;;8.98;4.32;;;;;;;11.73;63.62;98042.94;5027270;28;20091;-63
2021/05/18 03:03:56;;;;;;;7.68;3.78;;;;;;;11.73;63.71;98048.09;5028772;28;20037;-63
2021/05/18 03:06:21;;;;;;;7.88;3.80;;;;;;;11.73;63.18;98053.22;5012501;28;20112;-63
2021/05/18 03:08:47;;;;;;;7.60;3.80;;;;;;;11.70;63.41;98049.00;5025867;28;20104;-62
2021/05/18 03:11:12;;;;;;;13.00;5.13;;;;;;;11.60;63.76;98046.78;5025261;28;20025;-62
2021/05/18 03:13:38;;;;;;;6.70;3.10;;;;;;;11.70;63.54;98054.13;5027481;28;20021;-65
2021/05/18 03:16:04;;;;;;;5.43;2.63;;;;;;;11.74;63.41;98047.19;5029087;28;20034;-63
2021/05/18 03:18:30;;;;;;;7.32;2.97;;;;;;;11.73;63.81;98056.63;5020054;28;20467;-63
2021/05/18 03:20:56;;;;;;;5.40;2.70;;;;;;;11.76;63.32;98051.38;5028318;28;20030;-63
2021/05/18 03:23:23;;;;;;;6.55;2.90;;;;;;;11.79;63.40;98051.31;5034335;28;20025;-62
2021/05/18 03:25:49;;;;;;;4.03;2.38;;;;;;;11.82;63.39;98056.34;5029387;28;20507;-63
2021/05/18 03:28:15;;;;;;;5.57;2.35;;;;;;;11.86;63.03;98057.91;5035846;28;20029;-63
2021/05/18 03:35:50;;;;;;;8.43;3.30;;;;;;;11.66;64.45;98065.41;5030978;28;20073;-63
2021/05/18 03:38:58;;;;;;;11.48;4.78;;;;;;;11.68;64.50;98073.88;5031032;28;20406;-62
2021/05/18 03:41:14;;;;;;;8.15;3.85;;;;;;;11.73;64.05;98082.31;5028241;28;20055;-63
2021/05/18 03:43:50;;;;;;;4.35;2.20;;;;;;;11.73;64.22;98076.31;5034012;28;20035;-62
2021/05/18 04:11:40;;;;;;;8.38;3.78;;;;;;;11.79;63.65;98074.41;4925385;29;20053;-61
2021/05/18 04:19:14;;;;;;;8.10;3.93;;;;;;;12.05;61.94;98073.53;4915991;29;20409;-62
2021/05/18 04:24:36;;;;;;;8.73;3.92;;;;;;;12.06;61.36;98092.34;4924710;29;20619;-61
2021/05/18 04:59:04;;;;;;;7.00;3.47;;;;;;;12.80;59.35;98110.31;5034304;28;20167;-61
2021/05/18 05:01:55;;;;;;;8.98;4.15;;;;;;;12.78;60.04;98119.81;5031836;28;20072;-62
2021/05/18 05:09:32;;;;;;;11.68;4.13;;;;;;;12.65;60.37;98116.84;5033260;28;20366;-65
2021/05/18 05:14:42;;;;;;;13.35;5.72;;;;;;;12.80;60.50;98108.59;5034011;28;20696;-66
2021/05/18 05:17:08;;;;;;;6.40;3.17;;;;;;;12.91;60.48;98125.34;5030262;28;20263;-62
2021/05/18 05:19:34;;;;;;;11.23;4.80;;;;;;;12.88;60.32;98110.88;5023422;28;20067;-62
2021/05/18 05:22:00;;;;;;;11.10;4.68;;;;;;;12.93;59.78;98121.00;5011805;28;20275;-62
2021/05/18 05:24:26;;;;;;;7.53;3.63;;;;;;;12.94;59.96;98112.41;5030766;28;20025;-62
2021/05/18 05:26:53;;;;;;;7.22;3.33;;;;;;;12.86;60.31;98120.38;5031451;28;20255;-61
2021/05/18 05:29:20;;;;;;;6.30;3.30;;;;;;;12.95;60.05;98116.63;5030587;28;20029;-62
2021/05/18 05:31:47;;;;;;;6.00;2.90;;;;;;;13.02;60.13;98118.94;5031083;28;20385;-63
2021/05/18 05:34:13;;;;;;;8.30;3.83;;;;;;;13.15;60.03;98138.19;5031605;28;20269;-62
2021/05/18 05:36:39;;;;;;;6.97;3.10;;;;;;;12.93;58.95;98110.72;5028881;28;20033;-62
2021/05/18 05:39:19;;;;;;;8.75;4.32;;;;;;;13.15;59.24;98120.16;5031220;28;20379;-62
2021/05/18 05:41:45;;;;;;;6.88;3.20;;;;;;;13.25;57.99;98118.09;5032813;28;20034;-62
2021/05/18 05:44:10;;;;;;;8.23;3.95;;;;;;;13.38;58.10;98136.47;5032133;28;20037;-61
2021/05/18 05:46:36;;;;;;;13.57;3.55;;;;;;;13.29;58.67;98129.94;5027932;28;20302;-62
2021/05/18 05:49:03;;;;;;;7.38;3.80;;;;;;;13.35;58.71;98144.34;5031166;28;20120;-61
2021/05/18 05:51:28;;;;;;;7.50;3.40;;;;;;;13.31;58.58;98128.16;5030862;28;20017;-63
2021/05/18 05:53:58;;;;;;;6.00;3.00;;;;;;;13.33;58.49;98134.09;5029140;28;20116;-63
2021/05/18 05:56:23;;;;;;;5.88;3.25;;;;;;;13.40;58.64;98138.13;5028957;28;20025;-63
2021/05/18 05:58:49;;;;;;;8.55;3.08;;;;;;;13.34;57.49;98128.03;5029906;28;20091;-62
2021/05/18 06:01:15;;;;;;;9.43;4.53;;;;;;;13.35;58.86;98127.16;5029003;28;20109;-63
2021/05/18 06:03:41;;;;;;;10.25;4.60;;;;;;;13.71;57.92;98142.91;5028687;28;20351;-63
2021/05/18 06:06:07;;;;;;;8.77;4.15;;;;;;;13.82;57.23;98150.22;5031070;28;20079;-63
2021/05/18 06:08:38;;;;;;;6.65;2.97;;;;;;;13.72;56.46;98148.00;5031302;28;20029;-65
2021/05/18 06:11:13;;;;;;;5.57;2.60;;;;;;;13.78;57.78;98134.06;5032003;28;20120;-64
2021/05/18 06:14:31;;;;;;;14.68;6.22;;;;;;;13.78;56.36;98151.25;5027093;28;20133;-63
2021/05/18 06:46:15;;;;;;;6.82;3.42;;;;;;;13.98;55.71;98187.38;5031937;28;20144;-61
2021/05/18 06:48:41;;;;;;;9.50;4.03;;;;;;;13.97;57.14;98219.19;5031054;28;20091;-62
2021/05/18 06:51:07;;;;;;;6.80;3.13;;;;;;;13.89;56.28;98198.03;5030098;28;20033;-63
2021/05/18 06:53:32;;;;;;;7.55;3.75;;;;;;;13.93;56.51;98215.91;5028853;28;20033;-61
2021/05/18 06:55:59;;;;;;;9.18;4.35;;;;;;;13.85;56.99;98199.91;5029456;28;20299;-61
2021/05/18 07:01:21;;;;;;;8.02;3.70;;;;;;;14.07;55.82;98187.84;4999426;28;20052;-62
2021/05/18 07:03:52;;;;;;;9.00;3.70;;;;;;;14.10;55.38;98204.91;5025966;28;20420;-62
2021/05/18 07:11:12;;;;;;;12.02;5.07;;;;;;;14.27;55.20;98205.06;5028439;28;20033;-62
2021/05/18 07:13:37;;;;;;;11.35;4.03;;;;;;;14.27;53.77;98212.81;5029864;28;20167;-63
2021/05/18 07:16:03;;;;;;;8.55;4.22;;;;;;;14.46;55.33;98195.75;5029720;28;20036;-63
2021/05/18 07:18:28;;;;;;;8.68;3.83;;;;;;;14.48;54.30;98208.56;5030890;28;20025;-63
2021/05/18 07:20:53;;;;;;;8.07;3.63;;;;;;;14.59;53.13;98202.06;5027630;28;20049;-64
2021/05/18 07:23:23;;;;;;;11.50;4.13;;;;;;;14.53;54.00;98222.94;5028263;28;20034;-63
2021/05/18 07:25:48;;;;;;;7.88;3.97;;;;;;;14.56;54.06;98194.44;5029729;28;20408;-64
2021/05/18 07:28:16;;;;;;;9.00;4.30;;;;;;;14.72;53.61;98204.13;5038771;28;20041;-63
2021/05/18 07:30:41;;;;;;;10.23;3.95;;;;;;;14.66;53.16;98202.63;5028686;28;20033;-63
2021/05/18 07:33:08;;;;;;;9.98;4.60;;;;;;;14.81;53.26;98201.16;5032486;28;20048;-64
2021/05/18 07:35:34;;;;;;;8.55;4.63;;;;;;;14.89;53.63;98207.66;5034008;28;20087;-62
2021/05/18 07:38:00;;;;;;;6.30;3.33;;;;;;;14.72;52.67;98206.69;5036468;28;20073;-62
2021/05/18 07:40:25;;;;;;;4.82;2.45;;;;;;;14.77;51.34;98209.91;5032454;28;20037;-62
2021/05/18 07:42:52;;;;;;;5.38;2.65;;;;;;;14.73;52.03;98224.69;5036138;28;20339;-62
2021/05/18 07:45:25;;;;;;;4.38;2.55;;;;;;;14.75;52.04;98212.56;5031372;28;20064;-64
2021/05/18 07:47:52;;;;;;;5.53;2.50;;;;;;;14.81;52.99;98235.50;5027835;28;20049;-62
2021/05/18 07:50:25;;;;;;;6.68;3.35;;;;;;;14.87;52.69;98222.38;5034980;28;20107;-64
2021/05/18 08:06:26;;;;;;;3.50;2.50;;;;;;;14.95;52.11;98245.25;5035674;28;20341;-63
2021/05/18 08:08:51;;;;;;;5.90;3.28;;;;;;;15.15;52.80;98239.25;5037979;28;20021;-63
2021/05/18 08:11:17;;;;;;;3.75;2.28;;;;;;;15.24;52.25;98270.66;5034529;28;20033;-62
2021/05/18 08:13:42;;;;;;;5.75;2.45;;;;;;;15.03;51.87;98243.19;5035402;28;20036;-61
2021/05/18 09:34:26;;;;;;;37.33;35.30;;;;;;;16.30;47.81;98294.25;5013096;28;20037;-61
2021/05/18 10:15:39;;;;;;;43.92;41.83;;;;;;;16.73;46.06;98274.09;5035319;28;20055;-62
2021/05/18 10:36:42;;;;;;;138.02;131.88;;;;;;;16.80;46.66;98254.78;4978021;28;20035;-61
2021/05/18 10:39:15;;;;;;;172.27;164.80;;;;;;;16.77;46.40;98257.50;4962007;28;20026;-62
2021/05/18 10:41:40;;;;;;;159.98;152.80;;;;;;;16.89;45.79;98260.31;4976110;28;20141;-64
2021/05/18 10:44:06;;;;;;;115.15;109.80;;;;;;;16.74;45.45;98248.16;4973754;28;20105;-64
2021/05/18 10:46:52;;;;;;;183.82;175.60;;;;;;;16.76;45.37;98242.91;4975707;28;20371;-64
2021/05/18 10:49:53;;;;;;;100.50;95.80;;;;;;;17.00;45.01;98246.00;4975985;28;20027;-66
2021/05/18 10:52:36;;;;;;;107.53;102.28;;;;;;;17.01;45.03;98245.09;4978692;28;20092;-64
2021/05/18 10:55:01;;;;;;;107.20;102.03;;;;;;;16.62;44.52;98247.91;4975602;28;20026;-64
2021/05/18 10:57:31;;;;;;;107.35;102.47;;;;;;;16.53;45.35;98245.75;4972221;28;20042;-65
2021/05/18 10:59:59;;;;;;;77.50;73.53;;;;;;;16.57;46.10;98247.28;5014749;28;20083;-63
2021/05/18 11:02:40;;;;;;;73.68;69.97;;;;;;;16.55;45.79;98246.53;5027500;28;20021;-65
2021/05/18 11:05:10;;;;;;;168.63;161.15;;;;;;;16.72;44.98;98244.78;5033289;28;20646;-65
2021/05/18 11:07:40;;;;;;;90.28;85.88;;;;;;;16.68;45.44;98242.41;5034343;28;20107;-62
2021/05/18 11:10:18;;;;;;;101.05;96.22;;;;;;;16.87;45.84;98238.00;5035217;28;20113;-62
2021/05/18 11:12:48;;;;;;;95.43;90.80;;;;;;;17.39;45.13;98238.75;5021970;28;20437;-62
2021/05/18 11:15:16;;;;;;;126.60;120.18;;;;;;;17.41;44.01;98249.03;5031414;28;20090;-62
2021/05/18 11:17:49;;;;;;;132.50;126.18;;;;;;;17.24;44.59;98229.19;5033978;28;20025;-63
2021/05/18 11:26:07;;;;;;;59.85;56.72;;;;;;;17.16;45.14;98239.94;5031509;28;20029;-65
2021/05/18 11:28:46;;;;;;;35.13;32.92;;;;;;;17.15;44.59;98251.22;5032697;28;20032;-65
2021/05/18 11:31:11;;;;;;;67.70;63.75;;;;;;;16.89;44.63;98251.72;5030571;28;20256;-66
2021/05/18 11:33:43;;;;;;;27.95;25.85;;;;;;;16.87;44.40;98249.22;5031512;28;20079;-63
2021/05/18 11:36:14;;;;;;;45.90;43.22;;;;;;;17.16;45.28;98250.31;5031224;28;20029;-61
2021/05/18 11:38:56;;;;;;;48.50;45.70;;;;;;;17.54;45.00;98248.31;5035040;28;20025;-61
2021/05/18 11:41:23;;;;;;;57.03;53.33;;;;;;;17.24;44.77;98242.97;5030199;28;20037;-61
2021/05/18 11:43:50;;;;;;;37.25;35.00;;;;;;;17.12;45.33;98259.16;5033885;28;20120;-63
2021/05/18 11:46:16;;;;;;;52.47;49.58;;;;;;;17.16;46.20;98237.34;5036293;28;20025;-61
2021/05/18 11:48:53;;;;;;;54.83;51.55;;;;;;;17.33;44.71;98271.00;5011985;28;20302;-61
2021/05/18 11:51:18;;;;;;;26.65;24.60;;;;;;;17.39;45.91;98245.69;5033138;28;20171;-64
2021/05/18 11:53:47;;;;;;;60.47;57.08;;;;;;;17.50;45.27;98241.63;5033250;28;20033;-63
2021/05/18 11:56:30;;;;;;;42.35;39.35;;;;;;;17.59;44.61;98256.72;5035048;28;20032;-63
2021/05/18 11:59:04;;;;;;;424.23;402.30;;;;;;;17.46;43.78;98247.03;5033346;28;20030;-65
2021/05/18 12:01:50;;;;;;;11.75;4.55;;;;;;;17.55;43.98;98250.00;5029623;28;20060;-65
2021/05/18 12:04:18;;;;;;;11.27;5.40;;;;;;;17.49;44.55;98249.47;5015697;28;20037;-65
2021/05/18 12:07:13;;;;;;;11.93;6.38;;;;;;;17.58;44.42;98255.03;5033019;28;20429;-65
2021/05/18 12:09:41;;;;;;;10.65;5.53;;;;;;;17.59;43.16;98261.91;5002432;28;20040;-65
2021/05/18 12:12:09;;;;;;;14.25;7.00;;;;;;;17.35;42.27;98255.41;5034148;28;20048;-64
2021/05/18 12:14:48;;;;;;;12.15;6.10;;;;;;;17.22;43.43;98254.34;5031952;28;20347;-65
2021/05/18 12:17:24;;;;;;;7.82;4.40;;;;;;;17.63;43.14;98259.97;5031255;28;20039;-64
2021/05/18 12:19:49;;;;;;;12.82;9.38;;;;;;;17.71;41.76;98253.47;5034415;28;20118;-65
2021/05/18 12:22:15;;;;;;;11.95;10.75;;;;;;;17.91;41.58;98254.97;5028335;28;20096;-65
2021/05/18 12:24:43;;;;;;;23.00;21.40;;;;;;;18.07;41.80;98257.59;5032934;28;20098;-65
2021/05/18 12:27:09;;;;;;;22.50;20.65;;;;;;;18.17;41.61;98240.56;5038975;28;20277;-66
2021/05/18 12:29:42;;;;;;;25.02;23.52;;;;;;;18.35;40.27;98246.47;5033341;28;20338;-65
2021/05/18 12:32:34;;;;;;;79.18;75.07;;;;;;;18.41;40.90;98248.75;5029527;28;20367;-65
2021/05/18 12:35:05;;;;;;;383.50;364.98;;;;;;;18.63;40.40;98260.44;5030207;28;20063;-65
2021/05/18 12:37:34;;;;;;;311.38;296.73;;;;;;;18.66;40.05;98260.28;5030666;28;20056;-64
2021/05/18 12:40:06;;;;;;;206.20;196.45;;;;;;;18.63;40.29;98244.84;5031081;28;20401;-64
2021/05/18 12:42:32;;;;;;;88.45;83.93;;;;;;;18.79;40.62;98231.84;5035663;28;20060;-66
2021/05/18 12:45:00;;;;;;;77.35;73.45;;;;;;;18.97;38.63;98254.13;5050368;28;20025;-66
2021/05/18 12:47:32;;;;;;;55.00;52.22;;;;;;;18.46;40.07;98255.31;5035386;28;20049;-66
2021/05/18 12:49:58;;;;;;;50.50;48.00;;;;;;;18.86;40.68;98251.31;5031152;28;20017;-65
2021/05/18 12:52:37;;;;;;;26.35;24.95;;;;;;;18.91;39.50;98244.09;5034790;28;20044;-65
2021/05/18 12:55:13;;;;;;;30.60;28.58;;;;;;;18.28;40.23;98253.78;5029921;28;20022;-65
2021/05/18 12:57:59;;;;;;;20.80;19.33;;;;;;;18.15;42.04;98250.22;5029556;28;20025;-64
2021/05/18 13:00:41;;;;;;;29.98;27.92;;;;;;;18.09;39.86;98253.13;5030767;28;20088;-64
2021/05/18 13:03:10;;;;;;;46.58;44.22;;;;;;;17.90;40.71;98255.91;5030990;28;20092;-64
2021/05/18 13:05:36;;;;;;;36.53;34.28;;;;;;;18.03;41.79;98243.94;5030069;28;20021;-63
2021/05/18 13:08:07;;;;;;;37.33;35.13;;;;;;;18.70;40.74;98240.16;5031656;28;20166;-64
2021/05/18 13:10:47;;;;;;;27.63;25.92;;;;;;;18.59;39.35;98245.94;5032031;28;20025;-66
2021/05/18 13:13:13;;;;;;;37.10;34.85;;;;;;;18.95;39.88;98249.94;5029634;28;20044;-66
2021/05/18 13:15:39;;;;;;;29.70;27.65;;;;;;;18.83;39.20;98243.72;5029548;28;20022;-64
2021/05/18 13:18:09;;;;;;;27.48;25.67;;;;;;;18.24;39.72;98249.69;5030933;28;20021;-64
2021/05/18 13:20:39;;;;;;;27.50;25.88;;;;;;;18.33;40.78;98233.59;5032164;28;20022;-64
2021/05/18 13:23:05;;;;;;;28.48;26.83;;;;;;;18.43;39.53;98242.53;5031862;28;20041;-64
2021/05/18 13:28:22;;;;;;;21.05;19.52;;;;;;;19.41;38.97;98232.44;5030052;28;20095;-64
2021/05/18 13:30:48;;;;;;;20.92;18.70;;;;;;;19.44;36.96;98232.25;5032823;28;20308;-65
2021/05/18 13:33:13;;;;;;;13.40;12.27;;;;;;;19.31;37.84;98229.53;5031538;28;20037;-66
2021/05/18 13:35:39;;;;;;;21.77;20.23;;;;;;;19.16;38.98;98225.28;5034212;28;20033;-65
2021/05/18 13:38:05;;;;;;;25.00;22.98;;;;;;;18.77;38.47;98212.88;5032155;28;20037;-65
2021/05/18 13:40:30;;;;;;;26.10;24.38;;;;;;;18.52;39.85;98221.28;5028739;28;20041;-64
2021/05/18 13:42:56;;;;;;;10.00;9.00;;;;;;;18.59;39.32;98219.16;5029983;28;20064;-66
2021/05/18 13:45:26;;;;;;;10.82;9.80;;;;;;;18.99;38.30;98204.66;5030595;28;20286;-65
2021/05/18 13:47:55;;;;;;;7.20;6.10;;;;;;;19.18;38.40;98200.03;5044476;28;20060;-65
2021/05/18 13:50:22;;;;;;;13.52;12.18;;;;;;;19.20;38.33;98210.34;5048440;28;20027;-63
2021/05/18 13:52:48;;;;;;;8.23;5.22;;;;;;;19.19;38.21;98209.50;5048757;28;20026;-65
2021/05/18 13:55:14;;;;;;;11.85;8.73;;;;;;;19.28;37.72;98206.34;5049507;28;20282;-64
2021/05/18 13:57:40;;;;;;;8.70;5.70;;;;;;;19.22;36.87;98219.72;5047013;28;20146;-64
2021/05/18 14:00:09;;;;;;;10.10;6.78;;;;;;;18.95;37.73;98222.22;5050400;28;20025;-64
2021/05/18 14:02:41;;;;;;;7.78;6.50;;;;;;;18.60;38.02;98221.66;5052425;28;20663;-65
2021/05/18 14:05:09;;;;;;;8.70;7.88;;;;;;;18.60;38.32;98223.41;5047335;28;20108;-65
2021/05/18 14:10:31;;;;;;;16.55;14.95;;;;;;;18.82;36.83;98236.84;5048736;28;20043;-66
2021/05/18 14:12:56;;;;;;;15.18;14.25;;;;;;;19.03;37.28;98225.19;5049941;28;20029;-65
2021/05/18 14:15:22;;;;;;;12.88;11.07;;;;;;;19.05;37.25;98227.69;5048953;28;20086;-67
2021/05/18 14:17:47;;;;;;;13.02;11.95;;;;;;;19.07;36.71;98224.06;5053629;28;20371;-61
2021/05/18 14:20:14;;;;;;;10.82;9.57;;;;;;;18.87;37.18;98226.19;5051584;28;20324;-65
2021/05/18 14:22:39;;;;;;;18.50;16.95;;;;;;;19.07;37.12;98213.69;5051129;28;20024;-64
2021/05/18 14:25:06;;;;;;;11.90;10.85;;;;;;;19.36;37.48;98219.72;5053301;28;20039;-63
2021/05/18 14:27:34;;;;;;;12.55;9.48;;;;;;;19.15;36.87;98234.84;5049802;28;20040;-64
2021/05/18 14:29:59;;;;;;;11.75;10.55;;;;;;;18.83;36.63;98230.72;5052391;28;20426;-64
2021/05/18 14:32:25;;;;;;;12.85;9.57;;;;;;;18.63;37.32;98233.63;5051116;28;20344;-67
2021/05/18 14:34:52;;;;;;;10.60;6.47;;;;;;;18.48;37.87;98248.31;5048046;28;20366;-67
2021/05/18 14:37:18;;;;;;;10.85;6.97;;;;;;;18.26;38.29;98248.69;5045402;28;20327;-66
2021/05/18 14:39:55;;;;;;;11.77;8.25;;;;;;;18.24;38.56;98253.13;5050529;28;20073;-68
2021/05/18 14:45:05;;;;;;;9.63;5.80;;;;;;;18.88;36.67;98241.69;5049162;28;20333;-66
2021/05/18 14:48:07;;;;;;;10.48;5.53;;;;;;;19.59;36.23;98246.94;5049441;28;20064;-64
2021/05/18 14:56:05;;;;;;;6.18;4.57;;;;;;;19.95;35.44;98257.66;5053279;28;20347;-64
2021/05/18 14:58:30;;;;;;;9.95;6.57;;;;;;;20.17;35.50;98248.50;5048072;28;20343;-64
2021/05/18 15:00:56;;;;;;;6.68;4.60;;;;;;;19.61;35.43;98255.47;5034397;28;20049;-63
2021/05/18 15:03:21;;;;;;;6.90;4.35;;;;;;;19.50;36.31;98250.94;5046740;28;20384;-64
2021/05/18 15:05:46;;;;;;;8.50;5.55;;;;;;;19.45;36.42;98249.53;5046583;28;20039;-64
2021/05/18 15:08:12;;;;;;;8.23;5.20;;;;;;;18.68;38.11;98249.78;5045552;28;20032;-62
2021/05/18 15:10:37;;;;;;;9.57;5.95;;;;;;;18.87;38.03;98255.59;5048372;28;20021;-62
2021/05/18 15:13:03;;;;;;;6.65;4.55;;;;;;;19.61;36.54;98258.06;5048107;28;20341;-61
2021/05/18 15:15:29;;;;;;;9.65;5.82;;;;;;;20.44;33.79;98265.81;5039063;28;20330;-62
2021/05/18 15:17:59;;;;;;;7.05;4.57;;;;;;;20.58;34.22;98254.47;5050259;28;20048;-63
2021/05/18 15:20:25;;;;;;;8.57;5.90;;;;;;;20.43;34.17;98248.53;5045176;28;20029;-62
2021/05/18 15:22:51;;;;;;;10.82;6.95;;;;;;;19.72;35.33;98268.66;5047358;28;20108;-62
2021/05/18 15:25:16;;;;;;;8.73;5.47;;;;;;;20.46;34.26;98263.94;5047094;28;20104;-63
2021/05/18 15:27:42;;;;;;;7.35;4.38;;;;;;;21.78;32.60;98260.19;5047905;28;20035;-62
2021/05/18 15:30:10;;;;;;;6.18;3.92;;;;;;;21.71;32.38;98248.53;5049466;28;20087;-62
2021/05/18 15:32:36;;;;;;;6.45;4.18;;;;;;;22.20;32.01;98252.88;5046977;28;20031;-68
2021/05/18 15:35:01;;;;;;;11.07;6.22;;;;;;;21.77;32.41;98250.69;5049173;28;20025;-63
2021/05/18 15:37:27;;;;;;;10.60;6.13;;;;;;;21.19;33.11;98255.66;5050897;28;20522;-61
2021/05/18 15:39:52;;;;;;;10.18;6.15;;;;;;;21.55;32.40;98257.53;5046299;28;20033;-61
2021/05/18 15:42:19;;;;;;;9.35;5.82;;;;;;;22.50;31.42;98245.44;5048211;28;20041;-61
2021/05/18 15:44:44;;;;;;;15.48;9.50;;;;;;;23.04;31.15;98248.34;5047346;28;20021;-62
2021/05/18 15:47:10;;;;;;;10.90;6.53;;;;;;;22.85;31.44;98242.00;5047148;28;20294;-62
2021/05/18 15:49:35;;;;;;;5.35;3.97;;;;;;;21.69;32.98;98245.16;5047625;28;20033;-62
2021/05/18 15:52:01;;;;;;;7.45;4.38;;;;;;;21.32;33.83;98246.91;5055934;28;20033;-61
2021/05/18 15:54:26;;;;;;;14.52;7.65;;;;;;;19.13;37.36;98248.88;5040644;28;20025;-61
2021/05/18 15:56:52;;;;;;;11.93;9.40;;;;;;;19.15;37.18;98247.00;5052720;28;20029;-62
2021/05/18 15:59:19;;;;;;;9.18;6.22;;;;;;;19.05;37.63;98238.09;5055379;28;20116;-61
2021/05/18 16:01:45;;;;;;;9.27;5.60;;;;;;;18.42;37.94;98235.66;5052348;28;20116;-61
2021/05/18 16:04:11;;;;;;;43.92;41.60;;;;;;;18.57;38.27;98257.38;5038675;28;20139;-62
2021/05/18 16:06:43;;;;;;;23.40;21.40;;;;;;;18.65;38.19;98247.38;5052300;28;20037;-62
2021/05/18 16:09:12;;;;;;;21.80;20.63;;;;;;;18.90;37.40;98249.38;5055891;28;20035;-61
2021/05/18 16:11:40;;;;;;;22.88;21.40;;;;;;;19.10;35.94;98255.06;5039450;28;20039;-61
2021/05/18 16:14:06;;;;;;;28.17;26.27;;;;;;;19.66;35.34;98250.81;5051638;28;20041;-61
2021/05/18 16:16:32;;;;;;;19.98;18.45;;;;;;;19.78;34.69;98244.88;5040285;28;20056;-61
2021/05/18 16:18:58;;;;;;;24.15;22.58;;;;;;;19.97;34.80;98244.56;5056098;28;20025;-61
2021/05/18 16:21:25;;;;;;;33.92;32.13;;;;;;;20.58;34.69;98246.66;5050110;28;20032;-60
2021/05/18 16:23:57;;;;;;;27.00;25.17;;;;;;;20.36;35.06;98241.22;5055287;28;20040;-61
2021/05/18 16:26:26;;;;;;;25.75;24.10;;;;;;;20.84;34.20;98245.78;5050002;28;20033;-61
2021/05/18 16:28:52;;;;;;;45.50;42.60;;;;;;;21.45;33.20;98248.66;5050535;28;20120;-61
2021/05/18 16:31:20;;;;;;;28.70;27.02;;;;;;;22.00;32.29;98249.09;5048909;28;20040;-62
2021/05/18 16:33:45;;;;;;;35.75;33.10;;;;;;;21.24;33.68;98243.16;5050842;28;20109;-61
2021/05/18 16:36:13;;;;;;;34.08;31.83;;;;;;;21.45;32.79;98241.66;5053879;28;20036;-61
2021/05/18 16:38:39;;;;;;;27.98;26.10;;;;;;;21.58;32.69;98236.44;5052116;28;20035;-63